sensor_id;sensor_type;location;lat;lon;timestamp;P1;durP1;ratioP1;P2;durP2;ratioP2
51866;SDS011;52862;52.504;13.480;2022-07-23T00:00:15;12.98;;;5.82;;
51866;SDS011;52862;52.504;13.480;2022-07-23T00:02:42;10.82;;;5.40;;
51866;SDS011;52862;52.504;13.480;2022-07-23T00:05:09;20.35;;;6.68;;
51866;SDS011;52862;52.504;13.480;2022-07-23T00:07:37;13.45;;;5.78;;
51866;SDS011;52862;52.504;13.480;2022-07-23T00:10:04;13.93;;;6.43;;
51866;SDS011;52862;52.504;13.480;2022-07-23T00:12:32;16.42;;;6.40;;
51866;SDS011;52862;52.504;13.480;2022-07-23T00:15:00;9.70;;;5.82;;
51866;SDS011;52862;52.504;13.480;2022-07-23T00:17:27;17.85;;;6.25;;
51866;SDS011;52862;52.504;13.480;2022-07-23T00:19:54;13.18;;;5.70;;
51866;SDS011;52862;52.504;13.480;2022-07-23T00:22:21;11.10;;;5.70;;
51866;SDS011;52862;52.504;13.480;2022-07-23T00:24:48;14.82;;;5.80;;
51866;SDS011;52862;52.504;13.480;2022-07-23T00:27:35;11.65;;;5.20;;
51866;SDS011;52862;52.504;13.480;2022-07-23T00:30:02;18.00;;;6.22;;
51866;SDS011;52862;52.504;13.480;2022-07-23T00:32:30;12.35;;;5.65;;
51866;SDS011;52862;52.504;13.480;2022-07-23T00:35:18;20.77;;;6.00;;
51866;SDS011;52862;52.504;13.480;2022-07-23T00:37:46;23.25;;;6.22;;
51866;SDS011;52862;52.504;13.480;2022-07-23T00:40:13;18.38;;;5.72;;
51866;SDS011;52862;52.504;13.480;2022-07-23T00:42:41;17.70;;;6.50;;
51866;SDS011;52862;52.504;13.480;2022-07-23T00:45:09;12.52;;;5.65;;
51866;SDS011;52862;52.504;13.480;2022-07-23T00:47:36;21.45;;;6.82;;
51866;SDS011;52862;52.504;13.480;2022-07-23T00:50:03;19.80;;;6.40;;
51866;SDS011;52862;52.504;13.480;2022-07-23T00:52:31;15.57;;;6.20;;
51866;SDS011;52862;52.504;13.480;2022-07-23T00:54:58;11.48;;;5.53;;
51866;SDS011;52862;52.504;13.480;2022-07-23T00:57:25;19.70;;;6.60;;
51866;SDS011;52862;52.504;13.480;2022-07-23T00:59:55;18.92;;;6.13;;
51866;SDS011;52862;52.504;13.480;2022-07-23T01:02:23;14.63;;;6.70;;
51866;SDS011;52862;52.504;13.480;2022-07-23T01:04:50;16.08;;;5.07;;
51866;SDS011;52862;52.504;13.480;2022-07-23T01:07:17;14.93;;;5.82;;
51866;SDS011;52862;52.504;13.480;2022-07-23T01:09:45;15.60;;;6.10;;
51866;SDS011;52862;52.504;13.480;2022-07-23T01:12:12;18.30;;;6.00;;
51866;SDS011;52862;52.504;13.480;2022-07-23T01:14:39;17.20;;;5.68;;
51866;SDS011;52862;52.504;13.480;2022-07-23T01:17:06;17.40;;;6.47;;
51866;SDS011;52862;52.504;13.480;2022-07-23T01:19:33;18.40;;;6.03;;
51866;SDS011;52862;52.504;13.480;2022-07-23T01:22:01;16.33;;;6.03;;
51866;SDS011;52862;52.504;13.480;2022-07-23T01:24:29;19.17;;;5.78;;
51866;SDS011;52862;52.504;13.480;2022-07-23T01:26:56;16.55;;;6.22;;
51866;SDS011;52862;52.504;13.480;2022-07-23T01:29:23;17.98;;;5.90;;
51866;SDS011;52862;52.504;13.480;2022-07-23T01:31:50;10.82;;;5.25;;
51866;SDS011;52862;52.504;13.480;2022-07-23T01:34:16;13.82;;;6.05;;
51866;SDS011;52862;52.504;13.480;2022-07-23T01:36:43;15.35;;;6.28;;
51866;SDS011;52862;52.504;13.480;2022-07-23T01:39:10;18.23;;;6.07;;
51866;SDS011;52862;52.504;13.480;2022-07-23T01:41:38;12.75;;;5.53;;
51866;SDS011;52862;52.504;13.480;2022-07-23T01:44:05;18.80;;;6.43;;
51866;SDS011;52862;52.504;13.480;2022-07-23T01:46:31;12.68;;;6.25;;
51866;SDS011;52862;52.504;13.480;2022-07-23T01:48:58;19.97;;;6.00;;
51866;SDS011;52862;52.504;13.480;2022-07-23T01:51:26;18.60;;;6.30;;
51866;SDS011;52862;52.504;13.480;2022-07-23T01:53:53;14.77;;;6.67;;
51866;SDS011;52862;52.504;13.480;2022-07-23T01:56:19;14.35;;;6.32;;
51866;SDS011;52862;52.504;13.480;2022-07-23T01:58:47;19.67;;;6.43;;
51866;SDS011;52862;52.504;13.480;2022-07-23T02:01:15;17.40;;;6.85;;
51866;SDS011;52862;52.504;13.480;2022-07-23T02:03:42;15.13;;;5.80;;
51866;SDS011;52862;52.504;13.480;2022-07-23T02:06:09;19.00;;;6.43;;
51866;SDS011;52862;52.504;13.480;2022-07-23T02:08:35;16.23;;;6.50;;
51866;SDS011;52862;52.504;13.480;2022-07-23T02:11:02;15.93;;;5.85;;
51866;SDS011;52862;52.504;13.480;2022-07-23T02:13:29;24.77;;;6.47;;
51866;SDS011;52862;52.504;13.480;2022-07-23T02:16:00;14.07;;;6.57;;
51866;SDS011;52862;52.504;13.480;2022-07-23T02:18:27;13.68;;;5.72;;
51866;SDS011;52862;52.504;13.480;2022-07-23T02:20:54;17.13;;;5.95;;
51866;SDS011;52862;52.504;13.480;2022-07-23T02:23:21;18.63;;;5.67;;
51866;SDS011;52862;52.504;13.480;2022-07-23T02:25:47;19.27;;;6.07;;
51866;SDS011;52862;52.504;13.480;2022-07-23T02:28:14;13.57;;;6.33;;
51866;SDS011;52862;52.504;13.480;2022-07-23T02:30:41;14.70;;;6.30;;
51866;SDS011;52862;52.504;13.480;2022-07-23T02:33:09;16.47;;;5.33;;
51866;SDS011;52862;52.504;13.480;2022-07-23T02:35:35;18.60;;;6.07;;
51866;SDS011;52862;52.504;13.480;2022-07-23T02:38:02;12.85;;;5.70;;
51866;SDS011;52862;52.504;13.480;2022-07-23T02:40:29;19.27;;;5.97;;
51866;SDS011;52862;52.504;13.480;2022-07-23T02:42:56;13.63;;;6.50;;
51866;SDS011;52862;52.504;13.480;2022-07-23T02:45:23;14.47;;;6.27;;
51866;SDS011;52862;52.504;13.480;2022-07-23T02:47:50;15.63;;;5.90;;
51866;SDS011;52862;52.504;13.480;2022-07-23T02:50:17;13.87;;;5.70;;
51866;SDS011;52862;52.504;13.480;2022-07-23T02:52:44;13.00;;;5.67;;
51866;SDS011;52862;52.504;13.480;2022-07-23T02:55:11;17.73;;;6.20;;
51866;SDS011;52862;52.504;13.480;2022-07-23T02:57:37;13.10;;;5.93;;
51866;SDS011;52862;52.504;13.480;2022-07-23T03:00:05;17.50;;;6.32;;
51866;SDS011;52862;52.504;13.480;2022-07-23T03:02:33;17.43;;;6.63;;
51866;SDS011;52862;52.504;13.480;2022-07-23T03:05:00;15.37;;;5.83;;
51866;SDS011;52862;52.504;13.480;2022-07-23T03:07:28;15.20;;;6.13;;
51866;SDS011;52862;52.504;13.480;2022-07-23T03:09:55;12.60;;;5.70;;
51866;SDS011;52862;52.504;13.480;2022-07-23T03:12:22;12.70;;;6.25;;
51866;SDS011;52862;52.504;13.480;2022-07-23T03:14:49;18.67;;;6.45;;
51866;SDS011;52862;52.504;13.480;2022-07-23T03:17:17;10.80;;;5.63;;
51866;SDS011;52862;52.504;13.480;2022-07-23T03:19:47;13.53;;;6.20;;
51866;SDS011;52862;52.504;13.480;2022-07-23T03:22:14;11.67;;;6.00;;
51866;SDS011;52862;52.504;13.480;2022-07-23T03:24:41;12.70;;;5.97;;
51866;SDS011;52862;52.504;13.480;2022-07-23T03:27:20;23.10;;;6.17;;
51866;SDS011;52862;52.504;13.480;2022-07-23T03:29:47;15.93;;;5.90;;
51866;SDS011;52862;52.504;13.480;2022-07-23T03:32:14;17.40;;;6.47;;
51866;SDS011;52862;52.504;13.480;2022-07-23T03:34:41;14.40;;;6.23;;
51866;SDS011;52862;52.504;13.480;2022-07-23T03:37:08;13.50;;;6.07;;
51866;SDS011;52862;52.504;13.480;2022-07-23T03:39:34;11.20;;;6.47;;
51866;SDS011;52862;52.504;13.480;2022-07-23T03:42:02;14.00;;;7.07;;
51866;SDS011;52862;52.504;13.480;2022-07-23T03:44:29;14.73;;;6.53;;
51866;SDS011;52862;52.504;13.480;2022-07-23T03:46:56;25.93;;;6.97;;
51866;SDS011;52862;52.504;13.480;2022-07-23T03:49:23;15.53;;;6.67;;
51866;SDS011;52862;52.504;13.480;2022-07-23T03:51:50;18.07;;;6.00;;
51866;SDS011;52862;52.504;13.480;2022-07-23T03:54:17;25.60;;;6.33;;
51866;SDS011;52862;52.504;13.480;2022-07-23T03:56:44;15.33;;;5.67;;
51866;SDS011;52862;52.504;13.480;2022-07-23T03:59:11;19.77;;;5.87;;
51866;SDS011;52862;52.504;13.480;2022-07-23T04:01:38;14.93;;;5.50;;
51866;SDS011;52862;52.504;13.480;2022-07-23T04:04:05;10.67;;;5.33;;
51866;SDS011;52862;52.504;13.480;2022-07-23T04:06:33;11.00;;;4.90;;
51866;SDS011;52862;52.504;13.480;2022-07-23T04:09:01;23.87;;;5.37;;
51866;SDS011;52862;52.504;13.480;2022-07-23T04:11:28;17.47;;;4.43;;
51866;SDS011;52862;52.504;13.480;2022-07-23T04:13:55;30.57;;;4.67;;
51866;SDS011;52862;52.504;13.480;2022-07-23T04:16:22;11.90;;;4.43;;
51866;SDS011;52862;52.504;13.480;2022-07-23T04:18:49;12.10;;;4.20;;
51866;SDS011;52862;52.504;13.480;2022-07-23T04:21:16;12.93;;;4.30;;
51866;SDS011;52862;52.504;13.480;2022-07-23T04:23:43;19.83;;;4.20;;
51866;SDS011;52862;52.504;13.480;2022-07-23T04:26:10;13.23;;;4.33;;
51866;SDS011;52862;52.504;13.480;2022-07-23T04:28:43;11.97;;;3.77;;
51866;SDS011;52862;52.504;13.480;2022-07-23T04:31:09;15.27;;;4.13;;
51866;SDS011;52862;52.504;13.480;2022-07-23T04:33:37;12.23;;;3.23;;
51866;SDS011;52862;52.504;13.480;2022-07-23T04:36:04;19.40;;;4.00;;
51866;SDS011;52862;52.504;13.480;2022-07-23T04:38:31;6.57;;;3.17;;
51866;SDS011;52862;52.504;13.480;2022-07-23T04:40:58;17.63;;;3.80;;
51866;SDS011;52862;52.504;13.480;2022-07-23T04:43:25;16.50;;;4.07;;
51866;SDS011;52862;52.504;13.480;2022-07-23T04:45:52;12.27;;;3.63;;
51866;SDS011;52862;52.504;13.480;2022-07-23T04:48:19;12.67;;;3.83;;
51866;SDS011;52862;52.504;13.480;2022-07-23T04:50:46;7.80;;;3.00;;
51866;SDS011;52862;52.504;13.480;2022-07-23T04:53:13;13.23;;;3.57;;
51866;SDS011;52862;52.504;13.480;2022-07-23T04:55:40;13.37;;;3.97;;
51866;SDS011;52862;52.504;13.480;2022-07-23T04:58:07;11.67;;;4.00;;
51866;SDS011;52862;52.504;13.480;2022-07-23T05:00:34;22.80;;;4.00;;
51866;SDS011;52862;52.504;13.480;2022-07-23T05:03:00;18.73;;;4.50;;
51866;SDS011;52862;52.504;13.480;2022-07-23T05:05:27;17.53;;;3.90;;
51866;SDS011;52862;52.504;13.480;2022-07-23T05:07:55;14.83;;;4.07;;
51866;SDS011;52862;52.504;13.480;2022-07-23T05:10:21;14.67;;;3.87;;
51866;SDS011;52862;52.504;13.480;2022-07-23T05:12:52;11.80;;;3.93;;
51866;SDS011;52862;52.504;13.480;2022-07-23T05:15:18;10.90;;;3.73;;
51866;SDS011;52862;52.504;13.480;2022-07-23T05:17:45;16.63;;;4.87;;
51866;SDS011;52862;52.504;13.480;2022-07-23T05:20:12;15.20;;;3.80;;
51866;SDS011;52862;52.504;13.480;2022-07-23T05:22:39;17.77;;;4.40;;
51866;SDS011;52862;52.504;13.480;2022-07-23T05:25:07;15.67;;;4.37;;
51866;SDS011;52862;52.504;13.480;2022-07-23T05:27:35;14.83;;;4.50;;
51866;SDS011;52862;52.504;13.480;2022-07-23T05:30:02;18.30;;;5.07;;
51866;SDS011;52862;52.504;13.480;2022-07-23T05:32:30;14.63;;;4.00;;
51866;SDS011;52862;52.504;13.480;2022-07-23T05:34:57;15.63;;;4.23;;
51866;SDS011;52862;52.504;13.480;2022-07-23T05:37:24;12.57;;;4.37;;
51866;SDS011;52862;52.504;13.480;2022-07-23T05:39:51;12.37;;;4.20;;
51866;SDS011;52862;52.504;13.480;2022-07-23T05:42:19;12.57;;;4.17;;
51866;SDS011;52862;52.504;13.480;2022-07-23T05:44:46;13.57;;;4.57;;
51866;SDS011;52862;52.504;13.480;2022-07-23T05:47:12;13.53;;;4.10;;
51866;SDS011;52862;52.504;13.480;2022-07-23T05:49:39;17.70;;;4.33;;
51866;SDS011;52862;52.504;13.480;2022-07-23T05:52:06;15.77;;;4.30;;
51866;SDS011;52862;52.504;13.480;2022-07-23T05:54:34;17.20;;;4.10;;
51866;SDS011;52862;52.504;13.480;2022-07-23T05:57:01;11.93;;;4.00;;
51866;SDS011;52862;52.504;13.480;2022-07-23T05:59:29;21.23;;;4.40;;
51866;SDS011;52862;52.504;13.480;2022-07-23T06:01:56;14.10;;;4.30;;
51866;SDS011;52862;52.504;13.480;2022-07-23T06:04:23;18.93;;;4.00;;
51866;SDS011;52862;52.504;13.480;2022-07-23T06:06:49;15.93;;;3.67;;
51866;SDS011;52862;52.504;13.480;2022-07-23T06:09:16;17.63;;;4.10;;
51866;SDS011;52862;52.504;13.480;2022-07-23T06:11:43;19.43;;;4.53;;
51866;SDS011;52862;52.504;13.480;2022-07-23T06:14:10;12.90;;;4.13;;
51866;SDS011;52862;52.504;13.480;2022-07-23T06:16:37;16.40;;;4.37;;
51866;SDS011;52862;52.504;13.480;2022-07-23T06:19:04;17.10;;;4.93;;
51866;SDS011;52862;52.504;13.480;2022-07-23T06:21:31;9.70;;;4.00;;
51866;SDS011;52862;52.504;13.480;2022-07-23T06:24:12;13.03;;;4.20;;
51866;SDS011;52862;52.504;13.480;2022-07-23T06:26:39;14.13;;;5.50;;
51866;SDS011;52862;52.504;13.480;2022-07-23T06:29:05;18.33;;;3.97;;
51866;SDS011;52862;52.504;13.480;2022-07-23T06:31:32;9.87;;;4.10;;
51866;SDS011;52862;52.504;13.480;2022-07-23T06:34:00;19.63;;;5.27;;
51866;SDS011;52862;52.504;13.480;2022-07-23T06:36:27;12.00;;;4.23;;
51866;SDS011;52862;52.504;13.480;2022-07-23T06:38:54;12.10;;;3.97;;
51866;SDS011;52862;52.504;13.480;2022-07-23T06:41:21;17.77;;;4.00;;
51866;SDS011;52862;52.504;13.480;2022-07-23T06:43:48;9.90;;;4.13;;
51866;SDS011;52862;52.504;13.480;2022-07-23T06:46:15;14.43;;;4.37;;
51866;SDS011;52862;52.504;13.480;2022-07-23T06:48:42;19.97;;;5.23;;
51866;SDS011;52862;52.504;13.480;2022-07-23T06:51:10;20.50;;;4.57;;
51866;SDS011;52862;52.504;13.480;2022-07-23T06:53:36;19.33;;;4.60;;
51866;SDS011;52862;52.504;13.480;2022-07-23T06:56:03;11.67;;;4.50;;
51866;SDS011;52862;52.504;13.480;2022-07-23T06:58:30;11.80;;;4.57;;
51866;SDS011;52862;52.504;13.480;2022-07-23T07:00:57;22.83;;;5.30;;
51866;SDS011;52862;52.504;13.480;2022-07-23T07:03:24;20.93;;;5.10;;
51866;SDS011;52862;52.504;13.480;2022-07-23T07:05:51;17.47;;;5.03;;
51866;SDS011;52862;52.504;13.480;2022-07-23T07:08:19;26.47;;;4.60;;
51866;SDS011;52862;52.504;13.480;2022-07-23T07:10:46;12.10;;;5.23;;
51866;SDS011;52862;52.504;13.480;2022-07-23T07:13:12;16.00;;;5.23;;
51866;SDS011;52862;52.504;13.480;2022-07-23T07:15:39;14.83;;;5.13;;
51866;SDS011;52862;52.504;13.480;2022-07-23T07:18:06;20.70;;;5.40;;
51866;SDS011;52862;52.504;13.480;2022-07-23T07:20:33;20.37;;;5.10;;
51866;SDS011;52862;52.504;13.480;2022-07-23T07:23:00;15.00;;;5.07;;
51866;SDS011;52862;52.504;13.480;2022-07-23T07:25:27;11.67;;;4.47;;
51866;SDS011;52862;52.504;13.480;2022-07-23T07:27:54;13.67;;;4.70;;
51866;SDS011;52862;52.504;13.480;2022-07-23T07:30:21;15.03;;;4.63;;
51866;SDS011;52862;52.504;13.480;2022-07-23T07:32:48;13.47;;;4.07;;
51866;SDS011;52862;52.504;13.480;2022-07-23T07:35:24;18.20;;;4.17;;
51866;SDS011;52862;52.504;13.480;2022-07-23T07:37:51;8.30;;;3.80;;
51866;SDS011;52862;52.504;13.480;2022-07-23T07:40:18;15.53;;;4.00;;
51866;SDS011;52862;52.504;13.480;2022-07-23T07:42:47;13.87;;;3.57;;
51866;SDS011;52862;52.504;13.480;2022-07-23T07:45:19;18.50;;;3.93;;
51866;SDS011;52862;52.504;13.480;2022-07-23T07:47:47;11.97;;;3.70;;
51866;SDS011;52862;52.504;13.480;2022-07-23T07:50:14;12.13;;;3.90;;
51866;SDS011;52862;52.504;13.480;2022-07-23T07:52:41;9.77;;;4.23;;
51866;SDS011;52862;52.504;13.480;2022-07-23T07:55:09;9.47;;;3.87;;
51866;SDS011;52862;52.504;13.480;2022-07-23T07:57:37;12.98;;;4.55;;
51866;SDS011;52862;52.504;13.480;2022-07-23T08:00:06;11.10;;;4.63;;
51866;SDS011;52862;52.504;13.480;2022-07-23T08:02:39;12.47;;;3.77;;
51866;SDS011;52862;52.504;13.480;2022-07-23T08:05:08;14.80;;;4.70;;
51866;SDS011;52862;52.504;13.480;2022-07-23T08:07:38;20.93;;;5.60;;
51866;SDS011;52862;52.504;13.480;2022-07-23T08:10:06;19.17;;;5.80;;
51866;SDS011;52862;52.504;13.480;2022-07-23T08:12:39;13.93;;;5.60;;
51866;SDS011;52862;52.504;13.480;2022-07-23T08:15:11;13.87;;;5.13;;
51866;SDS011;52862;52.504;13.480;2022-07-23T08:17:39;21.60;;;5.23;;
51866;SDS011;52862;52.504;13.480;2022-07-23T08:20:07;12.40;;;5.33;;
51866;SDS011;52862;52.504;13.480;2022-07-23T08:22:46;15.37;;;4.40;;
51866;SDS011;52862;52.504;13.480;2022-07-23T08:25:14;15.18;;;4.60;;
51866;SDS011;52862;52.504;13.480;2022-07-23T08:27:42;12.73;;;4.63;;
51866;SDS011;52862;52.504;13.480;2022-07-23T08:30:10;15.23;;;5.40;;
51866;SDS011;52862;52.504;13.480;2022-07-23T08:32:48;13.37;;;4.30;;
51866;SDS011;52862;52.504;13.480;2022-07-23T08:35:26;20.00;;;4.90;;
51866;SDS011;52862;52.504;13.480;2022-07-23T08:37:56;15.43;;;4.32;;
51866;SDS011;52862;52.504;13.480;2022-07-23T08:40:25;16.10;;;5.13;;
51866;SDS011;52862;52.504;13.480;2022-07-23T08:42:52;12.60;;;4.68;;
51866;SDS011;52862;52.504;13.480;2022-07-23T08:45:20;13.57;;;3.88;;
51866;SDS011;52862;52.504;13.480;2022-07-23T08:47:51;11.32;;;4.30;;
51866;SDS011;52862;52.504;13.480;2022-07-23T08:50:20;14.48;;;3.90;;
51866;SDS011;52862;52.504;13.480;2022-07-23T08:52:48;18.83;;;4.50;;
51866;SDS011;52862;52.504;13.480;2022-07-23T08:55:15;12.98;;;4.43;;
51866;SDS011;52862;52.504;13.480;2022-07-23T08:57:42;17.00;;;4.50;;
51866;SDS011;52862;52.504;13.480;2022-07-23T09:00:10;11.63;;;3.58;;
51866;SDS011;52862;52.504;13.480;2022-07-23T09:02:41;12.57;;;3.50;;
51866;SDS011;52862;52.504;13.480;2022-07-23T09:05:10;16.35;;;3.75;;
51866;SDS011;52862;52.504;13.480;2022-07-23T09:07:38;14.93;;;3.63;;
51866;SDS011;52862;52.504;13.480;2022-07-23T09:13:26;18.90;;;3.30;;
51866;SDS011;52862;52.504;13.480;2022-07-23T09:15:56;11.60;;;3.30;;
51866;SDS011;52862;52.504;13.480;2022-07-23T09:18:34;15.23;;;3.58;;
51866;SDS011;52862;52.504;13.480;2022-07-23T09:21:16;12.63;;;3.53;;
51866;SDS011;52862;52.504;13.480;2022-07-23T09:23:50;14.88;;;3.72;;
51866;SDS011;52862;52.504;13.480;2022-07-23T09:26:22;9.98;;;3.05;;
51866;SDS011;52862;52.504;13.480;2022-07-23T09:28:56;14.48;;;3.92;;
51866;SDS011;52862;52.504;13.480;2022-07-23T09:31:25;17.48;;;4.18;;
51866;SDS011;52862;52.504;13.480;2022-07-23T09:34:06;13.00;;;3.70;;
51866;SDS011;52862;52.504;13.480;2022-07-23T09:36:34;11.48;;;3.50;;
51866;SDS011;52862;52.504;13.480;2022-07-23T09:39:01;13.73;;;3.45;;
51866;SDS011;52862;52.504;13.480;2022-07-23T09:41:33;12.60;;;4.00;;
51866;SDS011;52862;52.504;13.480;2022-07-23T09:44:06;9.73;;;3.85;;
51866;SDS011;52862;52.504;13.480;2022-07-23T09:46:34;16.45;;;4.28;;
51866;SDS011;52862;52.504;13.480;2022-07-23T09:49:09;21.52;;;4.13;;
51866;SDS011;52862;52.504;13.480;2022-07-23T09:51:43;13.55;;;4.30;;
51866;SDS011;52862;52.504;13.480;2022-07-23T09:54:19;14.00;;;4.25;;
51866;SDS011;52862;52.504;13.480;2022-07-23T09:56:48;14.23;;;3.72;;
51866;SDS011;52862;52.504;13.480;2022-07-23T09:59:17;8.63;;;3.60;;
51866;SDS011;52862;52.504;13.480;2022-07-23T10:01:44;14.45;;;4.03;;
51866;SDS011;52862;52.504;13.480;2022-07-23T10:04:12;12.82;;;3.97;;
51866;SDS011;52862;52.504;13.480;2022-07-23T10:06:39;12.18;;;4.10;;
51866;SDS011;52862;52.504;13.480;2022-07-23T10:09:08;12.93;;;3.70;;
51866;SDS011;52862;52.504;13.480;2022-07-23T10:11:38;17.20;;;4.18;;
51866;SDS011;52862;52.504;13.480;2022-07-23T10:14:05;11.93;;;3.83;;
51866;SDS011;52862;52.504;13.480;2022-07-23T10:16:32;9.18;;;3.67;;
51866;SDS011;52862;52.504;13.480;2022-07-23T10:18:59;15.32;;;3.78;;
51866;SDS011;52862;52.504;13.480;2022-07-23T10:21:34;12.27;;;4.57;;
51866;SDS011;52862;52.504;13.480;2022-07-23T10:24:10;11.30;;;4.40;;
51866;SDS011;52862;52.504;13.480;2022-07-23T10:26:50;11.55;;;4.25;;
51866;SDS011;52862;52.504;13.480;2022-07-23T10:29:26;11.55;;;4.30;;
51866;SDS011;52862;52.504;13.480;2022-07-23T10:32:04;13.45;;;4.43;;
51866;SDS011;52862;52.504;13.480;2022-07-23T10:34:43;21.48;;;3.65;;
51866;SDS011;52862;52.504;13.480;2022-07-23T10:37:16;11.25;;;3.05;;
51866;SDS011;52862;52.504;13.480;2022-07-23T10:40:01;15.35;;;3.65;;
51866;SDS011;52862;52.504;13.480;2022-07-23T10:42:36;12.63;;;2.92;;
51866;SDS011;52862;52.504;13.480;2022-07-23T10:47:49;8.40;;;2.80;;
51866;SDS011;52862;52.504;13.480;2022-07-23T10:50:21;14.23;;;3.30;;
51866;SDS011;52862;52.504;13.480;2022-07-23T10:53:09;14.20;;;3.70;;
51866;SDS011;52862;52.504;13.480;2022-07-23T10:55:39;16.45;;;4.28;;
51866;SDS011;52862;52.504;13.480;2022-07-23T10:58:08;14.85;;;3.20;;
51866;SDS011;52862;52.504;13.480;2022-07-23T11:00:35;8.45;;;3.10;;
51866;SDS011;52862;52.504;13.480;2022-07-23T11:03:03;7.47;;;2.90;;
51866;SDS011;52862;52.504;13.480;2022-07-23T11:05:40;11.68;;;3.33;;
51866;SDS011;52862;52.504;13.480;2022-07-23T11:08:11;13.48;;;3.20;;
51866;SDS011;52862;52.504;13.480;2022-07-23T11:10:46;14.18;;;3.30;;
51866;SDS011;52862;52.504;13.480;2022-07-23T11:13:28;11.55;;;3.25;;
51866;SDS011;52862;52.504;13.480;2022-07-23T11:18:54;12.48;;;3.30;;
51866;SDS011;52862;52.504;13.480;2022-07-23T11:24:19;9.20;;;2.80;;
51866;SDS011;52862;52.504;13.480;2022-07-23T11:32:38;8.43;;;2.80;;
51866;SDS011;52862;52.504;13.480;2022-07-23T11:35:19;19.42;;;3.58;;
51866;SDS011;52862;52.504;13.480;2022-07-23T11:37:51;9.18;;;2.83;;
51866;SDS011;52862;52.504;13.480;2022-07-23T11:40:24;10.43;;;3.22;;
51866;SDS011;52862;52.504;13.480;2022-07-23T11:42:54;9.23;;;3.17;;
51866;SDS011;52862;52.504;13.480;2022-07-23T11:45:23;16.35;;;3.20;;
51866;SDS011;52862;52.504;13.480;2022-07-23T11:47:51;16.63;;;2.92;;
51866;SDS011;52862;52.504;13.480;2022-07-23T11:50:18;9.02;;;3.75;;
51866;SDS011;52862;52.504;13.480;2022-07-23T11:52:45;10.57;;;3.47;;
51866;SDS011;52862;52.504;13.480;2022-07-23T11:55:12;13.57;;;3.78;;
51866;SDS011;52862;52.504;13.480;2022-07-23T11:57:42;11.95;;;4.03;;
51866;SDS011;52862;52.504;13.480;2022-07-23T12:00:10;8.30;;;3.35;;
51866;SDS011;52862;52.504;13.480;2022-07-23T12:02:39;13.38;;;3.50;;
51866;SDS011;52862;52.504;13.480;2022-07-23T12:05:07;8.15;;;2.95;;
51866;SDS011;52862;52.504;13.480;2022-07-23T12:07:35;9.25;;;3.10;;
51866;SDS011;52862;52.504;13.480;2022-07-23T12:10:04;9.30;;;3.60;;
51866;SDS011;52862;52.504;13.480;2022-07-23T12:12:36;9.40;;;3.30;;
51866;SDS011;52862;52.504;13.480;2022-07-23T12:15:07;16.55;;;4.03;;
51866;SDS011;52862;52.504;13.480;2022-07-23T12:17:35;11.27;;;3.05;;
51866;SDS011;52862;52.504;13.480;2022-07-23T12:20:04;16.13;;;4.03;;
51866;SDS011;52862;52.504;13.480;2022-07-23T12:22:36;10.13;;;3.28;;
51866;SDS011;52862;52.504;13.480;2022-07-23T12:25:05;12.45;;;3.40;;
51866;SDS011;52862;52.504;13.480;2022-07-23T12:27:34;10.15;;;3.47;;
51866;SDS011;52862;52.504;13.480;2022-07-23T12:30:18;7.70;;;3.33;;
51866;SDS011;52862;52.504;13.480;2022-07-23T12:32:47;13.05;;;4.03;;
51866;SDS011;52862;52.504;13.480;2022-07-23T12:35:16;9.10;;;3.17;;
51866;SDS011;52862;52.504;13.480;2022-07-23T12:37:43;8.55;;;3.53;;
51866;SDS011;52862;52.504;13.480;2022-07-23T12:40:18;16.33;;;4.78;;
51866;SDS011;52862;52.504;13.480;2022-07-23T12:42:50;11.90;;;3.15;;
51866;SDS011;52862;52.504;13.480;2022-07-23T12:45:19;9.40;;;3.28;;
51866;SDS011;52862;52.504;13.480;2022-07-23T12:47:52;11.93;;;3.85;;
51866;SDS011;52862;52.504;13.480;2022-07-23T12:50:33;9.13;;;3.33;;
51866;SDS011;52862;52.504;13.480;2022-07-23T12:53:04;16.13;;;3.40;;
51866;SDS011;52862;52.504;13.480;2022-07-23T12:55:39;9.75;;;2.92;;
51866;SDS011;52862;52.504;13.480;2022-07-23T12:58:26;16.77;;;4.07;;
51866;SDS011;52862;52.504;13.480;2022-07-23T13:00:59;9.20;;;3.15;;
51866;SDS011;52862;52.504;13.480;2022-07-23T13:03:32;18.27;;;3.83;;
51866;SDS011;52862;52.504;13.480;2022-07-23T13:06:05;11.05;;;3.47;;
51866;SDS011;52862;52.504;13.480;2022-07-23T13:08:34;15.73;;;3.40;;
51866;SDS011;52862;52.504;13.480;2022-07-23T13:11:02;10.18;;;3.55;;
51866;SDS011;52862;52.504;13.480;2022-07-23T13:13:31;11.50;;;3.55;;
51866;SDS011;52862;52.504;13.480;2022-07-23T13:16:01;12.80;;;3.58;;
51866;SDS011;52862;52.504;13.480;2022-07-23T13:18:36;8.13;;;3.30;;
51866;SDS011;52862;52.504;13.480;2022-07-23T13:21:03;8.40;;;3.00;;
51866;SDS011;52862;52.504;13.480;2022-07-23T13:23:31;7.95;;;3.53;;
51866;SDS011;52862;52.504;13.480;2022-07-23T13:25:58;11.23;;;3.22;;
51866;SDS011;52862;52.504;13.480;2022-07-23T13:28:25;17.45;;;3.47;;
51866;SDS011;52862;52.504;13.480;2022-07-23T13:30:52;13.60;;;3.80;;
51866;SDS011;52862;52.504;13.480;2022-07-23T13:33:21;13.43;;;3.72;;
51866;SDS011;52862;52.504;13.480;2022-07-23T13:35:52;8.05;;;3.33;;
51866;SDS011;52862;52.504;13.480;2022-07-23T13:38:20;9.30;;;3.53;;
51866;SDS011;52862;52.504;13.480;2022-07-23T13:40:47;12.45;;;3.38;;
51866;SDS011;52862;52.504;13.480;2022-07-23T13:43:16;13.63;;;3.38;;
51866;SDS011;52862;52.504;13.480;2022-07-23T13:45:48;12.23;;;3.45;;
51866;SDS011;52862;52.504;13.480;2022-07-23T13:48:16;9.75;;;3.33;;
51866;SDS011;52862;52.504;13.480;2022-07-23T13:50:46;9.40;;;3.45;;
51866;SDS011;52862;52.504;13.480;2022-07-23T13:53:15;8.32;;;3.03;;
51866;SDS011;52862;52.504;13.480;2022-07-23T13:55:43;7.53;;;3.38;;
51866;SDS011;52862;52.504;13.480;2022-07-23T13:58:31;12.50;;;3.40;;
51866;SDS011;52862;52.504;13.480;2022-07-23T14:00:58;9.05;;;3.38;;
51866;SDS011;52862;52.504;13.480;2022-07-23T14:03:24;13.95;;;3.40;;
51866;SDS011;52862;52.504;13.480;2022-07-23T14:05:53;9.73;;;3.75;;
51866;SDS011;52862;52.504;13.480;2022-07-23T14:08:22;8.85;;;3.22;;
51866;SDS011;52862;52.504;13.480;2022-07-23T14:10:53;9.48;;;2.95;;
51866;SDS011;52862;52.504;13.480;2022-07-23T14:13:24;6.80;;;2.70;;
51866;SDS011;52862;52.504;13.480;2022-07-23T14:15:51;7.50;;;2.67;;
51866;SDS011;52862;52.504;13.480;2022-07-23T14:18:18;24.08;;;2.80;;
51866;SDS011;52862;52.504;13.480;2022-07-23T14:20:47;15.00;;;2.95;;
51866;SDS011;52862;52.504;13.480;2022-07-23T14:23:14;25.33;;;3.28;;
51866;SDS011;52862;52.504;13.480;2022-07-23T14:25:41;17.15;;;2.88;;
51866;SDS011;52862;52.504;13.480;2022-07-23T14:28:09;14.63;;;3.22;;
51866;SDS011;52862;52.504;13.480;2022-07-23T14:30:37;10.50;;;2.65;;
51866;SDS011;52862;52.504;13.480;2022-07-23T14:33:04;10.52;;;2.70;;
51866;SDS011;52862;52.504;13.480;2022-07-23T14:35:31;5.20;;;2.15;;
51866;SDS011;52862;52.504;13.480;2022-07-23T14:37:58;8.27;;;2.15;;
51866;SDS011;52862;52.504;13.480;2022-07-23T14:40:26;7.50;;;2.00;;
51866;SDS011;52862;52.504;13.480;2022-07-23T14:42:54;8.82;;;2.40;;
51866;SDS011;52862;52.504;13.480;2022-07-23T14:45:21;3.92;;;2.10;;
51866;SDS011;52862;52.504;13.480;2022-07-23T14:48:06;6.45;;;2.28;;
51866;SDS011;52862;52.504;13.480;2022-07-23T14:50:37;6.03;;;2.10;;